sensor_id;sensor_type;location;lat;lon;timestamp;P1;durP1;ratioP1;P2;durP2;ratioP2
82948;SDS011;72736;50.236;18.876;2024-02-21T08:51:25;15.70;;;7.50;;
82948;SDS011;72736;50.236;18.876;2024-02-21T08:56:32;17.50;;;7.10;;
82948;SDS011;72736;50.236;18.876;2024-02-21T09:01:38;17.70;;;7.40;;
82948;SDS011;72736;50.236;18.876;2024-02-21T09:06:45;16.40;;;7.50;;
82948;SDS011;72736;50.236;18.876;2024-02-21T09:11:51;19.90;;;7.70;;
82948;SDS011;72736;50.236;18.876;2024-02-21T09:16:56;16.80;;;7.00;;
82948;SDS011;72736;50.236;18.876;2024-02-21T09:22:05;12.70;;;7.10;;
82948;SDS011;72736;50.236;18.876;2024-02-21T09:27:10;19.70;;;7.00;;
82948;SDS011;72736;50.236;18.876;2024-02-21T09:32:16;15.90;;;6.40;;
82948;SDS011;72736;50.236;18.876;2024-02-21T09:37:22;17.00;;;7.50;;
82948;SDS011;72736;50.236;18.876;2024-02-21T09:42:31;17.30;;;8.00;;
82948;SDS011;72736;50.236;18.876;2024-02-21T09:47:47;15.20;;;7.30;;
82948;SDS011;72736;50.236;18.876;2024-02-21T09:53:07;14.10;;;7.20;;
82948;SDS011;72736;50.236;18.876;2024-02-21T09:58:13;15.00;;;6.40;;
82948;SDS011;72736;50.236;18.876;2024-02-21T10:03:19;17.40;;;6.90;;
82948;SDS011;72736;50.236;18.876;2024-02-21T10:08:25;12.20;;;5.00;;
82948;SDS011;72736;50.236;18.876;2024-02-21T10:13:31;15.30;;;5.90;;
82948;SDS011;72736;50.236;18.876;2024-02-21T10:18:37;14.00;;;5.90;;
82948;SDS011;72736;50.236;18.876;2024-02-21T10:23:44;18.90;;;6.40;;
82948;SDS011;72736;50.236;18.876;2024-02-21T10:28:50;16.30;;;5.10;;
82948;SDS011;72736;50.236;18.876;2024-02-21T10:33:58;13.60;;;5.60;;
82948;SDS011;72736;50.236;18.876;2024-02-21T10:39:06;13.50;;;5.60;;
82948;SDS011;72736;50.236;18.876;2024-02-21T10:44:12;12.40;;;5.20;;
82948;SDS011;72736;50.236;18.876;2024-02-21T10:49:22;12.50;;;5.00;;
82948;SDS011;72736;50.236;18.876;2024-02-21T10:54:40;13.20;;;5.10;;
82948;SDS011;72736;50.236;18.876;2024-02-21T10:59:53;11.00;;;4.40;;
82948;SDS011;72736;50.236;18.876;2024-02-21T11:05:02;11.00;;;4.40;;
82948;SDS011;72736;50.236;18.876;2024-02-21T11:10:22;12.10;;;4.50;;
82948;SDS011;72736;50.236;18.876;2024-02-21T11:15:29;10.40;;;4.10;;
82948;SDS011;72736;50.236;18.876;2024-02-21T11:20:35;14.40;;;4.30;;
82948;SDS011;72736;50.236;18.876;2024-02-21T11:25:42;12.20;;;4.50;;
82948;SDS011;72736;50.236;18.876;2024-02-21T11:30:48;15.20;;;4.40;;
82948;SDS011;72736;50.236;18.876;2024-02-21T11:40:58;10.10;;;3.90;;
82948;SDS011;72736;50.236;18.876;2024-02-21T11:46:03;11.40;;;4.90;;
82948;SDS011;72736;50.236;18.876;2024-02-21T11:51:10;12.90;;;4.60;;
82948;SDS011;72736;50.236;18.876;2024-02-21T11:56:24;14.40;;;5.00;;
82948;SDS011;72736;50.236;18.876;2024-02-21T12:06:35;10.80;;;3.90;;
82948;SDS011;72736;50.236;18.876;2024-02-21T12:11:42;11.70;;;5.40;;
82948;SDS011;72736;50.236;18.876;2024-02-21T12:16:49;13.40;;;4.50;;
82948;SDS011;72736;50.236;18.876;2024-02-21T12:21:55;15.30;;;5.80;;
82948;SDS011;72736;50.236;18.876;2024-02-21T12:27:03;17.20;;;6.50;;
82948;SDS011;72736;50.236;18.876;2024-02-21T12:32:09;16.40;;;7.00;;
82948;SDS011;72736;50.236;18.876;2024-02-21T12:37:14;12.80;;;5.00;;
82948;SDS011;72736;50.236;18.876;2024-02-21T12:42:20;12.70;;;4.20;;
82948;SDS011;72736;50.236;18.876;2024-02-21T12:47:28;10.80;;;3.90;;
82948;SDS011;72736;50.236;18.876;2024-02-21T12:52:34;11.30;;;5.20;;
82948;SDS011;72736;50.236;18.876;2024-02-21T13:02:45;12.00;;;5.00;;
82948;SDS011;72736;50.236;18.876;2024-02-21T13:07:50;11.90;;;4.90;;
82948;SDS011;72736;50.236;18.876;2024-02-21T13:12:57;10.70;;;4.70;;
82948;SDS011;72736;50.236;18.876;2024-02-21T13:18:03;12.00;;;5.70;;
82948;SDS011;72736;50.236;18.876;2024-02-21T13:23:09;12.40;;;5.80;;
82948;SDS011;72736;50.236;18.876;2024-02-21T13:28:15;12.60;;;6.70;;
82948;SDS011;72736;50.236;18.876;2024-02-21T13:33:21;16.10;;;5.80;;
82948;SDS011;72736;50.236;18.876;2024-02-21T13:38:27;13.40;;;5.80;;
82948;SDS011;72736;50.236;18.876;2024-02-21T13:43:33;15.00;;;6.50;;
82948;SDS011;72736;50.236;18.876;2024-02-21T13:48:38;16.10;;;6.90;;
82948;SDS011;72736;50.236;18.876;2024-02-21T13:53:44;14.10;;;6.30;;
82948;SDS011;72736;50.236;18.876;2024-02-21T13:58:50;17.40;;;7.40;;
82948;SDS011;72736;50.236;18.876;2024-02-21T14:03:56;13.40;;;6.30;;
82948;SDS011;72736;50.236;18.876;2024-02-21T14:09:01;18.50;;;7.20;;
82948;SDS011;72736;50.236;18.876;2024-02-21T14:14:07;13.00;;;5.80;;
82948;SDS011;72736;50.236;18.876;2024-02-21T14:19:13;12.70;;;5.50;;
82948;SDS011;72736;50.236;18.876;2024-02-21T14:24:20;11.60;;;5.40;;
82948;SDS011;72736;50.236;18.876;2024-02-21T14:29:26;14.40;;;5.40;;
82948;SDS011;72736;50.236;18.876;2024-02-21T14:34:32;10.70;;;4.90;;
82948;SDS011;72736;50.236;18.876;2024-02-21T14:39:38;12.30;;;4.50;;
82948;SDS011;72736;50.236;18.876;2024-02-21T14:44:43;12.90;;;5.50;;
82948;SDS011;72736;50.236;18.876;2024-02-21T14:49:49;8.90;;;3.30;;
82948;SDS011;72736;50.236;18.876;2024-02-21T14:54:55;12.30;;;4.60;;
82948;SDS011;72736;50.236;18.876;2024-02-21T15:00:00;9.00;;;3.80;;
82948;SDS011;72736;50.236;18.876;2024-02-21T15:05:11;14.50;;;4.50;;
82948;SDS011;72736;50.236;18.876;2024-02-21T15:15:22;11.90;;;4.30;;
82948;SDS011;72736;50.236;18.876;2024-02-21T15:20:28;10.30;;;4.00;;
82948;SDS011;72736;50.236;18.876;2024-02-21T15:30:40;10.20;;;4.90;;
82948;SDS011;72736;50.236;18.876;2024-02-21T15:35:46;15.90;;;5.20;;
82948;SDS011;72736;50.236;18.876;2024-02-21T15:40:52;14.20;;;5.10;;
82948;SDS011;72736;50.236;18.876;2024-02-21T15:45:58;14.80;;;5.10;;
82948;SDS011;72736;50.236;18.876;2024-02-21T15:51:04;14.50;;;5.70;;
82948;SDS011;72736;50.236;18.876;2024-02-21T15:56:11;14.00;;;5.70;;
82948;SDS011;72736;50.236;18.876;2024-02-21T16:01:16;17.20;;;5.70;;
82948;SDS011;72736;50.236;18.876;2024-02-21T16:06:23;14.20;;;5.70;;
82948;SDS011;72736;50.236;18.876;2024-02-21T16:11:29;13.00;;;5.60;;
82948;SDS011;72736;50.236;18.876;2024-02-21T16:16:36;12.40;;;5.00;;
82948;SDS011;72736;50.236;18.876;2024-02-21T16:21:43;18.40;;;5.90;;
82948;SDS011;72736;50.236;18.876;2024-02-21T16:26:49;15.30;;;6.10;;
82948;SDS011;72736;50.236;18.876;2024-02-21T16:31:55;13.30;;;6.40;;
82948;SDS011;72736;50.236;18.876;2024-02-21T16:37:00;18.30;;;5.80;;
82948;SDS011;72736;50.236;18.876;2024-02-21T16:42:08;14.70;;;5.70;;
82948;SDS011;72736;50.236;18.876;2024-02-21T16:47:13;17.00;;;6.20;;
82948;SDS011;72736;50.236;18.876;2024-02-21T16:52:20;19.80;;;6.60;;
82948;SDS011;72736;50.236;18.876;2024-02-21T16:57:25;18.60;;;7.60;;
82948;SDS011;72736;50.236;18.876;2024-02-21T17:02:31;17.00;;;6.60;;
82948;SDS011;72736;50.236;18.876;2024-02-21T17:07:46;13.20;;;5.80;;
82948;SDS011;72736;50.236;18.876;2024-02-21T17:12:51;16.40;;;6.30;;
82948;SDS011;72736;50.236;18.876;2024-02-21T17:17:57;16.80;;;7.30;;
82948;SDS011;72736;50.236;18.876;2024-02-21T17:23:03;16.20;;;7.00;;
82948;SDS011;72736;50.236;18.876;2024-02-21T17:28:09;20.90;;;7.40;;
82948;SDS011;72736;50.236;18.876;2024-02-21T17:33:14;15.10;;;6.70;;
82948;SDS011;72736;50.236;18.876;2024-02-21T17:43:26;20.20;;;6.70;;
82948;SDS011;72736;50.236;18.876;2024-02-21T17:48:35;16.60;;;7.30;;
82948;SDS011;72736;50.236;18.876;2024-02-21T17:58:46;15.40;;;7.00;;
82948;SDS011;72736;50.236;18.876;2024-02-21T18:03:53;16.80;;;7.10;;
82948;SDS011;72736;50.236;18.876;2024-02-21T18:14:04;17.60;;;7.20;;
82948;SDS011;72736;50.236;18.876;2024-02-21T18:19:11;16.40;;;7.40;;
82948;SDS011;72736;50.236;18.876;2024-02-21T18:29:21;13.70;;;5.90;;
82948;SDS011;72736;50.236;18.876;2024-02-21T18:34:41;17.10;;;6.90;;
82948;SDS011;72736;50.236;18.876;2024-02-21T18:39:47;15.20;;;7.50;;
82948;SDS011;72736;50.236;18.876;2024-02-21T18:44:52;17.80;;;7.50;;
82948;SDS011;72736;50.236;18.876;2024-02-21T18:55:03;15.40;;;6.50;;
82948;SDS011;72736;50.236;18.876;2024-02-21T19:00:12;13.90;;;6.90;;
82948;SDS011;72736;50.236;18.876;2024-02-21T19:05:26;18.70;;;6.90;;
82948;SDS011;72736;50.236;18.876;2024-02-21T19:10:31;16.90;;;7.20;;
82948;SDS011;72736;50.236;18.876;2024-02-21T19:15:38;19.50;;;6.60;;
82948;SDS011;72736;50.236;18.876;2024-02-21T19:20:44;16.10;;;7.30;;
82948;SDS011;72736;50.236;18.876;2024-02-21T19:25:50;19.50;;;7.70;;
82948;SDS011;72736;50.236;18.876;2024-02-21T19:30:56;14.70;;;6.80;;
82948;SDS011;72736;50.236;18.876;2024-02-21T19:36:01;17.50;;;7.00;;
82948;SDS011;72736;50.236;18.876;2024-02-21T19:41:07;16.60;;;7.60;;
82948;SDS011;72736;50.236;18.876;2024-02-21T19:46:13;11.00;;;7.10;;
82948;SDS011;72736;50.236;18.876;2024-02-21T19:51:19;17.10;;;7.40;;
82948;SDS011;72736;50.236;18.876;2024-02-21T19:56:27;15.50;;;7.20;;
82948;SDS011;72736;50.236;18.876;2024-02-21T20:06:37;16.30;;;8.30;;
82948;SDS011;72736;50.236;18.876;2024-02-21T20:11:43;18.70;;;8.00;;
82948;SDS011;72736;50.236;18.876;2024-02-21T20:16:49;14.60;;;7.00;;
82948;SDS011;72736;50.236;18.876;2024-02-21T20:21:54;15.30;;;7.20;;
82948;SDS011;72736;50.236;18.876;2024-02-21T20:27:00;16.70;;;8.20;;
82948;SDS011;72736;50.236;18.876;2024-02-21T20:32:06;22.20;;;8.80;;
82948;SDS011;72736;50.236;18.876;2024-02-21T20:37:12;20.00;;;9.00;;
82948;SDS011;72736;50.236;18.876;2024-02-21T20:42:18;14.10;;;6.60;;
82948;SDS011;72736;50.236;18.876;2024-02-21T20:47:27;19.30;;;8.10;;
82948;SDS011;72736;50.236;18.876;2024-02-21T20:52:32;19.20;;;9.10;;
82948;SDS011;72736;50.236;18.876;2024-02-21T20:57:39;22.70;;;10.00;;
82948;SDS011;72736;50.236;18.876;2024-02-21T21:02:44;19.90;;;9.70;;
82948;SDS011;72736;50.236;18.876;2024-02-21T21:07:50;23.90;;;10.50;;
82948;SDS011;72736;50.236;18.876;2024-02-21T21:12:56;22.50;;;8.50;;
82948;SDS011;72736;50.236;18.876;2024-02-21T21:18:03;21.10;;;9.00;;
82948;SDS011;72736;50.236;18.876;2024-02-21T21:23:10;21.50;;;9.90;;
82948;SDS011;72736;50.236;18.876;2024-02-21T21:28:16;22.40;;;9.70;;
82948;SDS011;72736;50.236;18.876;2024-02-21T21:33:22;21.40;;;9.40;;
82948;SDS011;72736;50.236;18.876;2024-02-21T21:38:28;25.60;;;9.90;;
82948;SDS011;72736;50.236;18.876;2024-02-21T21:43:34;23.00;;;9.70;;
82948;SDS011;72736;50.236;18.876;2024-02-21T21:48:42;21.00;;;9.10;;
82948;SDS011;72736;50.236;18.876;2024-02-21T21:53:48;21.20;;;8.70;;
82948;SDS011;72736;50.236;18.876;2024-02-21T21:58:54;24.90;;;8.90;;
82948;SDS011;72736;50.236;18.876;2024-02-21T22:04:00;22.10;;;8.60;;
82948;SDS011;72736;50.236;18.876;2024-02-21T22:09:06;19.70;;;8.40;;
82948;SDS011;72736;50.236;18.876;2024-02-21T22:14:12;15.10;;;7.00;;
82948;SDS011;72736;50.236;18.876;2024-02-21T22:19:18;17.10;;;7.20;;
82948;SDS011;72736;50.236;18.876;2024-02-21T22:24:24;14.90;;;6.60;;
82948;SDS011;72736;50.236;18.876;2024-02-21T22:29:29;17.80;;;6.60;;
82948;SDS011;72736;50.236;18.876;2024-02-21T22:39:40;15.20;;;5.50;;
82948;SDS011;72736;50.236;18.876;2024-02-21T22:44:46;14.60;;;5.80;;
82948;SDS011;72736;50.236;18.876;2024-02-21T22:49:51;18.10;;;6.30;;
82948;SDS011;72736;50.236;18.876;2024-02-21T22:54:57;11.50;;;5.90;;
82948;SDS011;72736;50.236;18.876;2024-02-21T23:00:04;13.30;;;5.50;;
82948;SDS011;72736;50.236;18.876;2024-02-21T23:05:11;14.50;;;5.50;;
82948;SDS011;72736;50.236;18.876;2024-02-21T23:10:21;13.20;;;5.70;;
82948;SDS011;72736;50.236;18.876;2024-02-21T23:15:28;11.50;;;5.60;;
82948;SDS011;72736;50.236;18.876;2024-02-21T23:20:34;11.30;;;4.40;;
82948;SDS011;72736;50.236;18.876;2024-02-21T23:25:40;10.60;;;4.80;;
82948;SDS011;72736;50.236;18.876;2024-02-21T23:30:46;15.80;;;5.60;;
82948;SDS011;72736;50.236;18.876;2024-02-21T23:35:51;12.40;;;4.60;;
82948;SDS011;72736;50.236;18.876;2024-02-21T23:40:57;11.70;;;4.80;;
82948;SDS011;72736;50.236;18.876;2024-02-21T23:46:03;13.60;;;6.10;;
82948;SDS011;72736;50.236;18.876;2024-02-21T23:51:09;15.70;;;5.50;;
82948;SDS011;72736;50.236;18.876;2024-02-21T23:56:15;15.10;;;5.60;;
